Trout Creek, New York
Current Conditions -  °F | °C
As of 6:42 AM on Saturday 20 Dec 2014 (Local Time) from KBGM Reporting Station
Overcast Overcast  
Wind Chill: 18°   Ceiling: 1300
Heat Index: 24°   Visibility: 10mi
Dew Point: 21°   Wind: 5mph
Humidity: 88%   Direction: 300°WNW
Pressure: 30.19"   Gusts: NA
Location:  42.2°N, 75.28°W
Report Text: KBGM 201142Z 30004KT 10SM OVC013 M04/M06 A3019 RMK AO2 T10441061
Loading
Personal Weather Stations






























Interactive Weather Map New forecast layout! Learn more

10-Day Weather Forecast

Advertisements
Track Severe Weather on mobile